Time;durP1;ratioP1;P1;durP2;ratioP2;P2;SDS_P1;SDS_P2;PMS_P1;PMS_P2;Temp;Humidity;BMP_temperature;BMP_pressure;BME280_temperature;BME280_humidity;BME280_pressure;Samples;Min_cycle;Max_cycle;Signal;HPM_P1;HPM_P2
2021/05/10 00:00:35;;;;;;;1.80;1.03;;;14.20;73.40;;;;;;5096216;28;20192;-77
2021/05/10 00:03:00;;;;;;;1.37;1.10;;;14.20;73.20;;;;;;5096286;28;20294;-77
2021/05/10 00:05:26;;;;;;;1.10;1.00;;;14.10;73.80;;;;;;5095452;28;20172;-77
2021/05/10 00:07:52;;;;;;;1.57;1.03;;;14.10;73.00;;;;;;5096204;28;20180;-77
2021/05/10 00:10:18;;;;;;;1.17;1.07;;;14.10;75.00;;;;;;5096371;28;20256;-77
2021/05/10 00:12:44;;;;;;;2.30;1.10;;;14.00;76.30;;;;;;5077853;28;20661;-77
2021/05/10 00:15:10;;;;;;;2.63;1.27;;;14.00;73.70;;;;;;5095975;28;20176;-77
2021/05/10 00:17:36;;;;;;;1.57;0.90;;;14.00;72.90;;;;;;5096053;28;20634;-77
2021/05/10 00:20:04;;;;;;;1.10;0.93;;;14.00;72.30;;;;;;5096142;28;20176;-77
2021/05/10 00:22:29;;;;;;;1.17;0.80;;;14.00;70.70;;;;;;5095862;28;20185;-77
2021/05/10 00:24:55;;;;;;;1.27;1.00;;;14.10;70.70;;;;;;5095769;28;20256;-77
2021/05/10 00:27:21;;;;;;;1.70;1.10;;;14.10;70.80;;;;;;5095883;28;20200;-77
2021/05/10 00:29:46;;;;;;;1.90;1.10;;;14.10;70.90;;;;;;5096136;28;20178;-77
2021/05/10 00:32:12;;;;;;;2.13;1.03;;;14.10;71.00;;;;;;5096438;28;20191;-77
2021/05/10 00:34:38;;;;;;;3.93;1.30;;;14.00;70.40;;;;;;5095616;28;20172;-77
2021/05/10 00:37:04;;;;;;;1.83;1.27;;;14.00;70.70;;;;;;5095472;28;20283;-77
2021/05/10 00:39:29;;;;;;;1.77;1.20;;;14.00;71.60;;;;;;5095495;28;20193;-77
2021/05/10 00:41:59;;;;;;;1.47;1.17;;;13.90;72.00;;;;;;5095650;28;20550;-77
2021/05/10 00:44:24;;;;;;;2.70;1.00;;;13.90;72.70;;;;;;5095157;28;20173;-77
2021/05/10 00:46:53;;;;;;;4.60;1.30;;;13.80;74.50;;;;;;5095277;28;20172;-77
2021/05/10 00:49:20;;;;;;;2.63;1.10;;;13.80;74.30;;;;;;5095348;28;20168;-77
2021/05/10 00:51:47;;;;;;;0.93;0.83;;;13.80;72.60;;;;;;5077379;28;20208;-77
2021/05/10 00:54:12;;;;;;;2.80;1.23;;;13.70;73.40;;;;;;5095235;28;20680;-77
2021/05/10 00:56:38;;;;;;;1.60;1.10;;;13.70;75.40;;;;;;5095474;28;20200;-77
2021/05/10 00:59:04;;;;;;;2.07;1.00;;;13.70;71.80;;;;;;5095787;28;20243;-77
2021/05/10 01:01:30;;;;;;;2.20;1.10;;;13.70;73.00;;;;;;5076735;28;20189;-77
2021/05/10 01:03:55;;;;;;;1.20;1.10;;;13.70;76.10;;;;;;5095033;28;20164;-77
2021/05/10 01:06:21;;;;;;;1.20;1.10;;;13.70;77.60;;;;;;5094874;28;20169;-77
2021/05/10 01:08:47;;;;;;;1.33;1.20;;;13.70;72.60;;;;;;5095266;28;20175;-77
2021/05/10 01:11:13;;;;;;;1.27;0.90;;;13.60;71.80;;;;;;5094785;28;20552;-77
2021/05/10 01:13:39;;;;;;;1.10;1.00;;;13.70;71.30;;;;;;5094786;28;20239;-78
2021/05/10 01:16:05;;;;;;;2.57;1.10;;;13.70;70.70;;;;;;5093653;28;20662;-78
2021/05/10 01:18:32;;;;;;;1.20;1.00;;;13.70;70.10;;;;;;5095031;28;20168;-77
2021/05/10 01:21:00;;;;;;;1.43;1.00;;;13.80;70.70;;;;;;5095041;28;20203;-78
2021/05/10 01:23:26;;;;;;;1.03;0.90;;;13.80;70.60;;;;;;5077050;28;20175;-77
2021/05/10 01:25:52;;;;;;;1.87;1.17;;;13.80;70.80;;;;;;5094867;28;20202;-77
2021/05/10 01:28:17;;;;;;;1.83;1.07;;;13.80;71.30;;;;;;5076533;28;20176;-77
2021/05/10 01:30:48;;;;;;;1.90;1.20;;;13.70;72.40;;;;;;5076332;28;20202;-77
2021/05/10 01:33:14;;;;;;;3.77;0.93;;;13.70;71.00;;;;;;5076324;28;20545;-77
2021/05/10 01:35:43;;;;;;;0.80;0.80;;;13.60;70.80;;;;;;5076039;28;20200;-77
2021/05/10 01:38:09;;;;;;;2.03;1.10;;;13.60;71.10;;;;;;5094542;28;20164;-77
2021/05/10 01:40:36;;;;;;;3.07;1.00;;;13.60;71.20;;;;;;5094242;28;20188;-77
2021/05/10 01:43:03;;;;;;;1.10;1.00;;;13.60;72.30;;;;;;5076146;28;20168;-77
2021/05/10 01:45:29;;;;;;;1.63;0.70;;;13.60;72.20;;;;;;5094138;28;20183;-77
2021/05/10 01:48:03;;;;;;;3.80;1.10;;;13.60;71.20;;;;;;5075965;28;20172;-77
2021/05/10 01:50:30;;;;;;;1.30;1.17;;;13.70;71.30;;;;;;5094314;28;20286;-77
2021/05/10 01:52:56;;;;;;;2.23;1.27;;;13.70;71.20;;;;;;5094188;28;20243;-77
2021/05/10 01:55:23;;;;;;;1.17;1.07;;;13.80;70.70;;;;;;5075675;28;20179;-77
2021/05/10 01:57:51;;;;;;;1.63;1.10;;;13.70;71.40;;;;;;5094068;28;20185;-77
2021/05/10 02:00:26;;;;;;;2.50;1.10;;;13.80;70.50;;;;;;5093886;28;20187;-77
2021/05/10 02:02:51;;;;;;;1.10;1.00;;;13.80;70.70;;;;;;5094252;28;20159;-77
2021/05/10 02:05:19;;;;;;;2.97;1.13;;;13.80;70.70;;;;;;5093858;28;20165;-77
2021/05/10 02:07:49;;;;;;;1.03;0.90;;;13.80;70.10;;;;;;5094243;28;20184;-77
2021/05/10 02:10:17;;;;;;;1.03;0.80;;;13.90;70.30;;;;;;5094085;28;20236;-77
2021/05/10 02:13:07;;;;;;;1.77;0.80;;;13.90;70.00;;;;;;5075658;28;20172;-77
2021/05/10 02:15:35;;;;;;;1.93;1.00;;;13.90;68.90;;;;;;5075520;28;20192;-77
2021/05/10 02:18:01;;;;;;;1.30;0.97;;;14.10;68.80;;;;;;5075627;28;20179;-77
2021/05/10 02:20:28;;;;;;;3.23;1.27;;;14.10;68.50;;;;;;5093561;28;20548;-77
2021/05/10 02:23:09;;;;;;;1.30;1.20;;;14.10;68.60;;;;;;5093482;28;20145;-77
2021/05/10 02:26:02;;;;;;;1.40;1.20;;;14.10;68.70;;;;;;5093687;28;20152;-77
2021/05/10 02:28:30;;;;;;;3.70;1.37;;;14.10;68.60;;;;;;5075800;28;20176;-77
2021/05/10 02:30:57;;;;;;;1.67;1.10;;;14.20;67.70;;;;;;5075550;28;20561;-77
2021/05/10 02:33:26;;;;;;;3.53;1.33;;;14.30;67.20;;;;;;5093931;28;20164;-77
2021/05/10 02:35:53;;;;;;;1.37;0.90;;;14.40;67.50;;;;;;5093443;28;20597;-77
2021/05/10 02:38:20;;;;;;;1.43;1.00;;;14.40;67.60;;;;;;5075731;28;20529;-77
2021/05/10 02:40:47;;;;;;;2.70;1.17;;;14.30;67.80;;;;;;5093444;28;20237;-77
2021/05/10 02:43:13;;;;;;;1.27;1.00;;;14.30;67.80;;;;;;5075260;28;20229;-77
2021/05/10 02:45:39;;;;;;;2.77;1.07;;;14.30;69.50;;;;;;5075570;28;20262;-77
2021/05/10 02:48:05;;;;;;;1.47;1.00;;;14.20;69.30;;;;;;5094107;28;20207;-77
2021/05/10 02:50:31;;;;;;;1.97;1.20;;;14.20;69.90;;;;;;5093358;28;20188;-77
2021/05/10 02:52:57;;;;;;;2.53;1.20;;;14.10;69.60;;;;;;5093477;28;20183;-77
2021/05/10 02:55:23;;;;;;;2.73;1.00;;;14.10;69.80;;;;;;5093130;28;20179;-77
2021/05/10 02:57:50;;;;;;;1.33;1.10;;;14.10;70.00;;;;;;5093482;28;20173;-77
2021/05/10 03:00:21;;;;;;;1.63;1.00;;;14.00;69.80;;;;;;5093238;28;20175;-77
2021/05/10 03:02:47;;;;;;;1.13;1.00;;;14.00;69.50;;;;;;5075253;28;20168;-77
2021/05/10 03:05:14;;;;;;;2.13;1.10;;;14.00;70.60;;;;;;5093144;28;20285;-77
2021/05/10 03:07:40;;;;;;;3.33;1.13;;;14.00;70.70;;;;;;5093298;28;20241;-77
2021/05/10 03:10:12;;;;;;;3.50;1.40;;;13.90;70.90;;;;;;5093059;28;20503;-78
2021/05/10 03:12:38;;;;;;;1.77;1.20;;;13.90;71.70;;;;;;5093415;28;20168;-77
2021/05/10 03:15:09;;;;;;;1.77;1.00;;;13.80;72.40;;;;;;5093096;28;20177;-77
2021/05/10 03:17:36;;;;;;;1.60;1.17;;;13.80;72.30;;;;;;5075217;28;20283;-77
2021/05/10 03:20:06;;;;;;;1.23;0.90;;;13.70;72.50;;;;;;5093284;28;20169;-77
2021/05/10 03:22:31;;;;;;;1.87;1.10;;;13.70;72.10;;;;;;5093225;28;20179;-77
2021/05/10 03:24:57;;;;;;;3.83;1.30;;;13.70;71.80;;;;;;5093154;28;20191;-77
2021/05/10 03:27:24;;;;;;;1.37;1.00;;;13.70;72.50;;;;;;5093156;28;20222;-77
2021/05/10 03:29:49;;;;;;;2.10;1.13;;;13.70;72.60;;;;;;5093499;28;20231;-77
2021/05/10 03:32:15;;;;;;;3.53;1.20;;;13.60;72.80;;;;;;5093022;28;20200;-77
2021/05/10 03:34:41;;;;;;;1.30;1.00;;;13.60;73.60;;;;;;5093039;28;20172;-77
2021/05/10 03:37:07;;;;;;;1.87;1.00;;;13.60;73.80;;;;;;5074849;28;20231;-77
2021/05/10 03:39:33;;;;;;;1.20;0.90;;;13.50;74.20;;;;;;5093923;28;20180;-77
2021/05/10 03:41:59;;;;;;;1.77;1.20;;;13.50;74.40;;;;;;5096651;28;20196;-77
2021/05/10 03:44:25;;;;;;;2.53;1.17;;;13.50;74.70;;;;;;5078258;28;20168;-77
2021/05/10 03:46:50;;;;;;;5.03;1.33;;;13.40;74.60;;;;;;5096623;28;20190;-77
2021/05/10 03:49:16;;;;;;;5.30;1.20;;;13.40;74.80;;;;;;5078317;28;20674;-77
2021/05/10 03:51:42;;;;;;;2.07;1.20;;;13.50;74.00;;;;;;5078220;28;20210;-77
2021/05/10 03:54:08;;;;;;;1.57;1.23;;;13.60;74.50;;;;;;5078578;28;20259;-80
2021/05/10 03:56:33;;;;;;;2.40;1.07;;;13.60;75.50;;;;;;5096254;28;20249;-78
2021/05/10 03:59:02;;;;;;;1.60;1.20;;;13.60;75.40;;;;;;5096720;28;20172;-79
2021/05/10 04:01:28;;;;;;;2.30;1.40;;;13.60;76.60;;;;;;5097375;28;20211;-77
2021/05/10 04:04:04;;;;;;;2.20;1.00;;;13.50;80.00;;;;;;5079096;28;20183;-77
2021/05/10 04:06:46;;;;;;;2.07;0.97;;;13.40;77.70;;;;;;5078457;28;20255;-78
2021/05/10 04:14:37;;;;;;;1.67;1.20;;;13.40;78.00;;;;;;5096639;28;20160;-77
2021/05/10 04:17:03;;;;;;;2.20;1.20;;;13.40;80.40;;;;;;5096439;28;20558;-77
2021/05/10 04:19:28;;;;;;;2.07;1.17;;;13.40;79.10;;;;;;5096191;28;20530;-79
2021/05/10 04:21:54;;;;;;;1.20;1.10;;;13.40;84.10;;;;;;5095843;28;20207;-77
2021/05/10 04:24:20;;;;;;;3.30;1.40;;;13.40;83.50;;;;;;5096032;28;20164;-77
2021/05/10 04:26:45;;;;;;;2.47;1.33;;;13.20;80.90;;;;;;5096406;28;20511;-78
2021/05/10 04:29:11;;;;;;;4.33;1.63;;;13.20;83.70;;;;;;5096674;28;20238;-78
2021/05/10 04:31:37;;;;;;;3.87;1.50;;;13.20;84.50;;;;;;5078109;28;20239;-77
2021/05/10 04:34:02;;;;;;;3.27;2.10;;;13.20;84.20;;;;;;5095976;28;20161;-77
2021/05/10 04:36:28;;;;;;;4.37;2.20;;;13.10;84.70;;;;;;5096011;28;20196;-77
2021/05/10 04:38:54;;;;;;;7.17;2.53;;;13.10;86.00;;;;;;5096347;28;20172;-77
2021/05/10 04:41:19;;;;;;;3.23;2.07;;;13.10;85.50;;;;;;5094634;28;20233;-77
2021/05/10 04:43:45;;;;;;;5.47;2.37;;;13.10;86.80;;;;;;5096051;28;20157;-77
2021/05/10 04:46:11;;;;;;;3.30;1.87;;;13.10;90.50;;;;;;5077715;28;20225;-77
2021/05/10 04:48:37;;;;;;;4.80;2.07;;;13.20;90.00;;;;;;5095935;28;20168;-77
2021/05/10 04:51:02;;;;;;;5.50;2.50;;;13.20;90.50;;;;;;5095753;28;20673;-78
2021/05/10 04:53:28;;;;;;;4.87;1.83;;;13.20;90.30;;;;;;5078537;28;20185;-77
2021/05/10 04:55:53;;;;;;;4.13;1.90;;;13.30;92.70;;;;;;5095625;28;20196;-77
2021/05/10 04:58:19;;;;;;;4.70;2.00;;;13.30;94.30;;;;;;5096185;28;20173;-77
2021/05/10 05:00:45;;;;;;;5.00;2.17;;;13.40;94.80;;;;;;5095864;28;20196;-78
2021/05/10 05:03:10;;;;;;;3.90;2.17;;;13.50;97.40;;;;;;5077807;28;20183;-77
2021/05/10 05:05:36;;;;;;;5.30;2.20;;;13.60;97.80;;;;;;5095502;28;20176;-77
2021/05/10 05:08:02;;;;;;;3.97;1.80;;;13.60;96.40;;;;;;5077553;28;20176;-77
2021/05/10 05:10:27;;;;;;;3.90;2.10;;;13.70;98.10;;;;;;5095542;28;20196;-77
2021/05/10 05:12:53;;;;;;;5.83;2.43;;;13.80;95.80;;;;;;5052464;28;20271;-77
2021/05/10 05:15:19;;;;;;;5.33;2.20;;;13.90;97.20;;;;;;5071407;28;20188;-77
2021/05/10 05:17:46;;;;;;;6.73;2.30;;;14.00;99.90;;;;;;5095993;28;20176;-77
2021/05/10 05:20:12;;;;;;;5.60;2.40;;;14.10;97.50;;;;;;5096097;28;20190;-77
2021/05/10 05:22:38;;;;;;;7.20;3.17;;;14.20;97.70;;;;;;5094569;28;20196;-77
2021/05/10 05:25:06;;;;;;;4.87;1.90;;;14.20;96.40;;;;;;5077498;28;20594;-78
2021/05/10 05:27:32;;;;;;;7.43;2.50;;;14.30;97.70;;;;;;5095938;28;20176;-77
2021/05/10 05:29:58;;;;;;;4.50;1.70;;;14.40;97.30;;;;;;5095436;28;20200;-78
2021/05/10 05:32:23;;;;;;;6.97;2.27;;;14.50;95.50;;;;;;5095538;28;20220;-78
2021/05/10 05:34:50;;;;;;;9.70;1.87;;;14.60;94.80;;;;;;5094711;28;20176;-78
2021/05/10 05:37:16;;;;;;;7.83;1.93;;;14.70;94.60;;;;;;5094346;28;20200;-78
2021/05/10 05:39:41;;;;;;;7.07;1.70;;;14.80;93.50;;;;;;5095354;28;20175;-78
2021/05/10 05:42:07;;;;;;;6.30;1.73;;;14.90;95.00;;;;;;5095255;28;20283;-79
2021/05/10 05:44:36;;;;;;;3.80;2.00;;;15.00;96.80;;;;;;5089477;28;20195;-78
2021/05/10 05:47:04;;;;;;;4.80;2.13;;;15.10;96.80;;;;;;5093635;28;20188;-78
2021/05/10 05:49:31;;;;;;;7.47;2.20;;;15.20;98.10;;;;;;5085799;28;20638;-78
2021/05/10 05:51:58;;;;;;;6.10;2.20;;;15.40;99.90;;;;;;5096681;28;20689;-78
2021/05/10 05:54:24;;;;;;;5.80;2.30;;;15.50;99.90;;;;;;5096495;28;20179;-78
2021/05/10 05:56:51;;;;;;;5.90;2.00;;;15.50;99.90;;;;;;5078538;28;20199;-78
2021/05/10 05:59:17;;;;;;;3.37;1.70;;;15.60;99.90;;;;;;5079350;28;20173;-78
2021/05/10 06:01:42;;;;;;;5.60;2.20;;;15.70;98.20;;;;;;5095561;28;20267;-78
2021/05/10 06:04:08;;;;;;;4.67;2.37;;;15.80;99.90;;;;;;5077520;28;20645;-79
2021/05/10 06:06:34;;;;;;;6.13;1.83;;;16.00;99.90;;;;;;5077924;28;20177;-78
2021/05/10 06:08:59;;;;;;;4.87;2.40;;;16.10;98.80;;;;;;5096316;28;20179;-78
2021/05/10 06:11:25;;;;;;;8.40;2.67;;;16.30;99.20;;;;;;5077758;28;20199;-78
2021/05/10 06:13:51;;;;;;;15.53;3.10;;;16.50;97.90;;;;;;5077786;28;20545;-78
2021/05/10 06:16:16;;;;;;;14.97;3.07;;;16.70;97.60;;;;;;5077922;28;20203;-78
2021/05/10 06:18:43;;;;;;;8.23;2.37;;;16.90;97.50;;;;;;5096599;28;20179;-78
2021/05/10 06:21:09;;;;;;;12.57;2.57;;;17.00;96.60;;;;;;5095784;28;20227;-78
2021/05/10 06:23:37;;;;;;;10.13;2.00;;;17.10;96.10;;;;;;5078205;28;20183;-78
2021/05/10 06:26:06;;;;;;;7.90;2.03;;;17.30;95.30;;;;;;5096155;28;20168;-78
2021/05/10 06:28:32;;;;;;;5.03;1.63;;;17.40;94.00;;;;;;5095972;28;20638;-78
2021/05/10 06:30:57;;;;;;;10.37;1.77;;;17.60;91.40;;;;;;5096240;28;20193;-78
2021/05/10 06:33:23;;;;;;;5.90;1.43;;;17.80;90.10;;;;;;5096069;28;20217;-78
2021/05/10 06:35:49;;;;;;;3.07;1.20;;;17.90;90.00;;;;;;5095690;28;20196;-78
2021/05/10 06:38:14;;;;;;;3.50;1.50;;;18.00;85.40;;;;;;5095714;28;20208;-78
2021/05/10 06:40:41;;;;;;;3.53;1.40;;;18.20;84.80;;;;;;5095855;28;20189;-78
2021/05/10 06:43:07;;;;;;;5.90;1.77;;;18.30;87.10;;;;;;5096035;28;20176;-78
2021/05/10 06:45:32;;;;;;;11.83;2.80;;;18.40;88.30;;;;;;5077744;28;20174;-78
2021/05/10 06:47:58;;;;;;;9.10;2.40;;;18.40;94.90;;;;;;5096199;28;20561;-78
2021/05/10 06:50:24;;;;;;;23.27;2.27;;;18.60;96.20;;;;;;5095937;28;20199;-78
2021/05/10 06:52:49;;;;;;;14.97;2.60;;;18.70;97.90;;;;;;5077698;28;20173;-79
2021/05/10 06:55:15;;;;;;;11.70;2.20;;;18.70;97.40;;;;;;5077909;28;20244;-78
2021/05/10 06:57:41;;;;;;;7.33;1.80;;;18.90;97.60;;;;;;5096476;28;20552;-78
2021/05/10 07:00:07;;;;;;;6.87;2.00;;;19.10;95.90;;;;;;5096240;28;20168;-78
2021/05/10 07:02:33;;;;;;;5.63;2.13;;;19.30;92.90;;;;;;5096438;28;20169;-78
2021/05/10 07:04:58;;;;;;;3.00;1.53;;;19.50;93.40;;;;;;5077579;28;20178;-78
2021/05/10 07:07:24;;;;;;;4.77;1.80;;;19.80;88.20;;;;;;5096312;28;20177;-78
2021/05/10 07:09:49;;;;;;;3.17;1.40;;;20.10;88.10;;;;;;5096389;28;20646;-78
2021/05/10 07:12:15;;;;;;;5.73;1.90;;;20.30;87.60;;;;;;5096606;28;20563;-79
2021/05/10 07:14:41;;;;;;;5.20;1.23;;;20.60;79.20;;;;;;5081456;28;20715;-79
2021/05/10 07:17:08;;;;;;;3.67;1.30;;;20.80;78.30;;;;;;5101125;28;20212;-78
2021/05/10 07:19:34;;;;;;;4.43;1.50;;;21.10;75.20;;;;;;5084475;28;20196;-78
2021/05/10 07:22:00;;;;;;;3.20;1.30;;;21.30;75.50;;;;;;5103494;28;20742;-78
2021/05/10 07:24:26;;;;;;;3.40;1.47;;;21.60;78.10;;;;;;5100904;28;20184;-78
2021/05/10 07:26:51;;;;;;;4.43;1.40;;;21.90;72.60;;;;;;5080656;28;20245;-78
2021/05/10 07:29:17;;;;;;;4.63;1.47;;;22.20;73.50;;;;;;5086228;28;20641;-78
2021/05/10 07:31:43;;;;;;;4.77;1.77;;;22.30;72.40;;;;;;5080164;28;20745;-77
2021/05/10 07:34:08;;;;;;;2.63;1.10;;;22.50;69.80;;;;;;5098266;28;20209;-77
2021/05/10 07:36:34;;;;;;;2.77;1.43;;;22.80;68.90;;;;;;5096609;28;20204;-77
2021/05/10 07:39:00;;;;;;;2.43;1.60;;;23.10;72.60;;;;;;5078832;28;20183;-77
2021/05/10 07:41:25;;;;;;;1.23;1.10;;;23.30;62.30;;;;;;5096834;28;20191;-77
2021/05/10 07:43:51;;;;;;;4.53;1.47;;;23.50;61.40;;;;;;5096696;28;20204;-77
2021/05/10 07:46:17;;;;;;;1.50;1.20;;;23.80;61.20;;;;;;5096587;28;20180;-77
2021/05/10 07:48:42;;;;;;;7.20;1.37;;;24.10;60.00;;;;;;5096677;28;20661;-77
2021/05/10 07:51:08;;;;;;;2.93;1.10;;;24.30;59.60;;;;;;5078490;28;20605;-77
2021/05/10 07:53:34;;;;;;;1.73;1.00;;;24.50;59.70;;;;;;5078502;28;20202;-78
2021/05/10 07:56:00;;;;;;;4.80;1.07;;;24.40;56.80;;;;;;5096708;28;20200;-78
2021/05/10 07:58:26;;;;;;;3.63;1.00;;;24.20;54.20;;;;;;5097773;28;20176;-78
2021/05/10 08:00:59;;;;;;;2.63;0.87;;;24.10;52.90;;;;;;5100915;28;20196;-77
2021/05/10 08:03:27;;;;;;;8.03;2.17;;;24.50;53.40;;;;;;5085160;28;20630;-77
2021/05/10 08:05:53;;;;;;;3.33;1.90;;;25.20;52.30;;;;;;5085577;28;20181;-77
2021/05/10 08:08:22;;;;;;;3.00;1.20;;;25.90;51.10;;;;;;5102946;28;20180;-77
2021/05/10 08:10:48;;;;;;;5.67;1.53;;;26.60;49.50;;;;;;5101834;28;20686;-77
2021/05/10 08:13:14;;;;;;;3.40;1.20;;;27.50;47.70;;;;;;5078416;28;20656;-77
2021/05/10 08:15:40;;;;;;;3.50;1.30;;;27.80;47.80;;;;;;5096237;28;20180;-77
2021/05/10 08:18:06;;;;;;;7.97;1.40;;;28.50;47.00;;;;;;5096428;28;20175;-78
2021/05/10 08:20:32;;;;;;;2.60;1.00;;;28.80;46.20;;;;;;5096893;28;20194;-78
2021/05/10 08:22:58;;;;;;;2.87;0.90;;;29.00;44.70;;;;;;5096505;28;20179;-77
2021/05/10 08:25:24;;;;;;;6.97;1.10;;;28.90;43.90;;;;;;5095756;28;20184;-78
2021/05/10 08:27:50;;;;;;;3.83;1.10;;;29.00;44.50;;;;;;5096876;28;20177;-77
2021/05/10 08:30:16;;;;;;;4.67;0.97;;;29.20;43.00;;;;;;5078359;28;20181;-77
2021/05/10 08:32:42;;;;;;;2.57;1.20;;;29.30;44.50;;;;;;5096279;28;20177;-78
2021/05/10 08:35:09;;;;;;;4.37;0.90;;;29.50;43.50;;;;;;5078255;28;20188;-77
2021/05/10 08:37:36;;;;;;;3.03;1.00;;;29.10;43.00;;;;;;5096057;28;20201;-77
2021/05/10 08:40:03;;;;;;;3.53;1.00;;;29.20;42.30;;;;;;5096155;28;20253;-78
2021/05/10 08:42:28;;;;;;;2.60;1.17;;;29.00;42.60;;;;;;5078573;28;20190;-78
2021/05/10 08:44:54;;;;;;;1.77;0.97;;;29.00;42.80;;;;;;5096559;28;20184;-78
2021/05/10 08:47:21;;;;;;;5.63;1.10;;;29.60;43.00;;;;;;5078672;28;20187;-78
2021/05/10 08:49:48;;;;;;;3.33;0.93;;;29.90;42.00;;;;;;5079063;28;20180;-77
2021/05/10 08:52:13;;;;;;;5.67;0.90;;;30.00;42.00;;;;;;5078421;28;20207;-77
2021/05/10 08:54:39;;;;;;;1.20;0.97;;;29.50;40.50;;;;;;5096695;28;20171;-78
2021/05/10 09:00:27;;;;;;;3.17;0.87;;;29.90;42.70;;;;;;5096996;28;20608;-78
2021/05/10 09:03:10;;;;;;;2.90;1.10;;;29.00;40.70;;;;;;5096461;28;20172;-78
2021/05/10 09:05:50;;;;;;;4.90;0.77;;;28.60;42.30;;;;;;5078372;28;20182;-77
2021/05/10 09:08:17;;;;;;;4.37;0.90;;;28.90;42.40;;;;;;5096670;28;20214;-78
2021/05/10 09:11:05;;;;;;;3.53;0.93;;;29.40;41.70;;;;;;5077900;28;20279;-78
2021/05/10 09:13:42;;;;;;;2.87;1.10;;;29.80;40.30;;;;;;5096503;28;20525;-78
2021/05/10 09:16:09;;;;;;;3.93;0.87;;;29.90;41.10;;;;;;5096316;28;20194;-78
2021/05/10 09:18:36;;;;;;;4.57;1.20;;;29.70;38.60;;;;;;5096624;28;20173;-78
2021/05/10 09:21:16;;;;;;;2.90;1.00;;;29.50;38.00;;;;;;5096327;28;20204;-78
2021/05/10 09:23:42;;;;;;;2.50;1.00;;;29.50;38.60;;;;;;5096525;28;20195;-78
2021/05/10 09:26:11;;;;;;;2.13;0.90;;;29.70;37.70;;;;;;5078295;28;20192;-78
2021/05/10 09:28:38;;;;;;;3.37;0.90;;;29.50;37.20;;;;;;5096726;28;20172;-78
2021/05/10 09:31:06;;;;;;;4.50;1.20;;;29.20;38.20;;;;;;5096597;28;20647;-78
2021/05/10 09:33:33;;;;;;;2.13;1.03;;;29.00;38.80;;;;;;5096530;28;20177;-78
2021/05/10 09:36:06;;;;;;;2.57;0.87;;;29.00;37.60;;;;;;5096056;28;20201;-78
2021/05/10 09:38:37;;;;;;;3.43;1.20;;;28.90;37.20;;;;;;5095271;28;20566;-78
2021/05/10 09:41:07;;;;;;;1.73;0.80;;;29.00;37.80;;;;;;5078034;28;20588;-78
2021/05/10 09:43:38;;;;;;;6.03;1.20;;;29.00;38.30;;;;;;5096738;28;20252;-78
2021/05/10 09:46:06;;;;;;;4.03;1.10;;;29.20;38.30;;;;;;5096510;28;20185;-78
2021/05/10 09:48:35;;;;;;;2.10;0.83;;;29.30;37.70;;;;;;5097051;28;20177;-78
2021/05/10 09:51:12;;;;;;;3.37;1.07;;;29.00;37.50;;;;;;5096920;28;20202;-78
2021/05/10 09:53:44;;;;;;;1.70;1.00;;;29.00;38.40;;;;;;5096484;28;20555;-78
2021/05/10 09:58:56;;;;;;;3.53;0.93;;;28.70;42.00;;;;;;5096346;28;20157;-78
2021/05/10 10:01:23;;;;;;;9.93;1.90;;;28.70;37.50;;;;;;5096292;28;20196;-79
2021/05/10 10:03:57;;;;;;;3.33;0.73;;;28.90;38.70;;;;;;5096754;28;20169;-79
2021/05/10 10:06:24;;;;;;;1.30;0.80;;;28.90;38.40;;;;;;5098279;28;20165;-79
2021/05/10 10:08:50;;;;;;;8.43;1.63;;;28.70;37.20;;;;;;5081104;28;20184;-79
2021/05/10 10:11:20;;;;;;;4.83;0.90;;;29.10;37.90;;;;;;5101150;28;20205;-80
2021/05/10 10:13:47;;;;;;;4.83;1.00;;;29.20;37.30;;;;;;5096570;28;20165;-78
2021/05/10 10:16:15;;;;;;;5.90;1.47;;;28.90;37.80;;;;;;5102037;28;20201;-77
2021/05/10 10:18:41;;;;;;;3.77;1.07;;;29.20;37.40;;;;;;5106552;28;20169;-77
2021/05/10 10:21:09;;;;;;;6.87;1.20;;;29.60;37.50;;;;;;5106558;28;20239;-77
2021/05/10 10:23:36;;;;;;;3.67;1.10;;;29.70;36.70;;;;;;5107817;28;20237;-77
2021/05/10 10:26:05;;;;;;;4.93;1.13;;;29.80;37.50;;;;;;5100763;28;20623;-77
2021/05/10 10:28:33;;;;;;;2.83;1.10;;;30.30;36.40;;;;;;5094497;28;20185;-77
2021/05/10 10:31:03;;;;;;;3.47;1.00;;;30.50;37.00;;;;;;5095163;28;20651;-78
2021/05/10 10:33:39;;;;;;;4.43;1.10;;;30.10;36.50;;;;;;5095450;28;20193;-78
2021/05/10 10:36:12;;;;;;;2.30;1.00;;;29.90;37.20;;;;;;5077438;28;20627;-78
2021/05/10 10:38:38;;;;;;;4.57;0.97;;;29.40;36.50;;;;;;5078557;28;20172;-78
2021/05/10 10:41:25;;;;;;;3.03;0.77;;;28.80;36.10;;;;;;5095067;28;20657;-78
2021/05/10 10:43:51;;;;;;;3.70;0.97;;;28.80;35.90;;;;;;5095465;28;20171;-78
2021/05/10 10:46:21;;;;;;;3.97;1.20;;;28.80;37.30;;;;;;5077927;28;20198;-78
2021/05/10 10:48:48;;;;;;;2.53;0.90;;;28.50;37.00;;;;;;5079913;28;20190;-78
2021/05/10 10:51:15;;;;;;;2.50;1.00;;;28.10;37.00;;;;;;5101863;28;20280;-78
2021/05/10 10:53:41;;;;;;;2.83;1.13;;;28.00;38.30;;;;;;5098966;28;20168;-78
2021/05/10 10:56:07;;;;;;;2.57;1.00;;;28.00;38.70;;;;;;5098602;28;20661;-77
2021/05/10 10:58:33;;;;;;;3.67;1.30;;;27.90;38.40;;;;;;5080514;28;20180;-77
2021/05/10 11:01:14;;;;;;;2.30;1.10;;;28.00;38.30;;;;;;5098244;28;20192;-77
2021/05/10 11:03:40;;;;;;;5.43;1.20;;;28.40;40.20;;;;;;5080172;28;20267;-77
2021/05/10 11:06:08;;;;;;;4.30;1.27;;;28.50;37.40;;;;;;5080087;28;20721;-77
2021/05/10 11:08:40;;;;;;;5.47;1.07;;;28.70;38.50;;;;;;5098434;28;20176;-78
2021/05/10 11:11:10;;;;;;;4.20;1.13;;;28.90;39.20;;;;;;5080241;28;20200;-78
2021/05/10 11:13:39;;;;;;;2.63;1.00;;;28.70;39.70;;;;;;5080310;28;20267;-78
2021/05/10 11:16:14;;;;;;;6.87;1.13;;;28.60;39.10;;;;;;5098009;28;20561;-78
2021/05/10 11:18:49;;;;;;;2.30;1.40;;;28.70;39.40;;;;;;5098500;28;20606;-78
2021/05/10 11:21:24;;;;;;;4.60;1.30;;;28.80;38.60;;;;;;5079782;28;20212;-78
2021/05/10 11:23:51;;;;;;;2.50;1.00;;;28.80;37.70;;;;;;5098150;28;20172;-77
2021/05/10 11:26:53;;;;;;;5.10;1.23;;;28.90;41.40;;;;;;5079784;28;20287;-78
2021/05/10 11:29:25;;;;;;;4.70;1.20;;;28.90;43.20;;;;;;5076294;28;20188;-79
2021/05/10 11:31:55;;;;;;;5.77;1.17;;;29.40;40.90;;;;;;5097894;28;20196;-78
2021/05/10 11:34:25;;;;;;;9.27;1.80;;;29.60;38.80;;;;;;5097856;28;20163;-78
2021/05/10 11:36:55;;;;;;;3.33;1.30;;;29.50;37.50;;;;;;5097789;28;20533;-77
2021/05/10 11:39:26;;;;;;;4.23;1.20;;;29.60;40.30;;;;;;5097895;28;20168;-78
2021/05/10 11:42:02;;;;;;;3.40;0.80;;;29.90;42.60;;;;;;5097930;28;20260;-78
2021/05/10 11:44:30;;;;;;;6.90;1.20;;;30.20;42.60;;;;;;5097930;28;20499;-78
2021/05/10 11:47:00;;;;;;;5.77;1.50;;;30.60;42.90;;;;;;5097737;28;20175;-78
2021/05/10 11:49:27;;;;;;;6.10;1.13;;;30.50;41.10;;;;;;5097672;28;20180;-79
2021/05/10 11:51:54;;;;;;;2.93;1.07;;;30.10;42.80;;;;;;5077629;28;20545;-78
2021/05/10 11:54:21;;;;;;;2.53;1.20;;;29.50;38.80;;;;;;5096990;28;20189;-78
2021/05/10 11:56:47;;;;;;;7.63;1.10;;;28.80;40.20;;;;;;5078274;28;20210;-77
2021/05/10 12:01:52;;;;;;;4.37;1.30;;;27.50;37.20;;;;;;5095787;28;20601;-77
2021/05/10 12:04:18;;;;;;;5.03;1.37;;;27.30;38.60;;;;;;5096680;28;20173;-77
2021/05/10 12:06:44;;;;;;;8.33;1.70;;;27.10;38.80;;;;;;5097076;28;20177;-78
2021/05/10 12:09:30;;;;;;;2.30;1.20;;;26.90;39.00;;;;;;5097732;28;20259;-78
2021/05/10 12:11:56;;;;;;;3.97;1.30;;;26.50;40.10;;;;;;5062367;28;20208;-77
2021/05/10 12:14:22;;;;;;;13.17;2.20;;;26.30;40.00;;;;;;5079213;28;20184;-78
2021/05/10 12:17:07;;;;;;;3.60;1.30;;;26.20;40.70;;;;;;5097002;28;20289;-78
2021/05/10 12:20:11;;;;;;;3.30;1.30;;;26.10;41.30;;;;;;5079148;28;20668;-78
2021/05/10 12:22:47;;;;;;;4.43;1.43;;;26.10;40.70;;;;;;5097302;28;20675;-78
2021/05/10 12:25:21;;;;;;;6.53;1.20;;;26.00;42.00;;;;;;5078607;28;20180;-78
2021/05/10 12:28:10;;;;;;;2.90;1.00;;;26.10;40.70;;;;;;5097425;28;20218;-78
2021/05/10 12:30:50;;;;;;;4.17;1.27;;;26.10;41.40;;;;;;5079204;28;20730;-77
2021/05/10 12:33:20;;;;;;;6.07;1.60;;;25.90;41.40;;;;;;5079225;28;20189;-78
2021/05/10 12:35:58;;;;;;;5.13;1.63;;;26.00;41.40;;;;;;5079168;28;20199;-78
2021/05/10 12:38:36;;;;;;;5.13;1.20;;;25.80;41.40;;;;;;5097502;28;20547;-78
2021/05/10 12:41:04;;;;;;;5.77;1.50;;;25.90;42.00;;;;;;5078856;28;20207;-78
2021/05/10 12:43:32;;;;;;;10.50;1.60;;;25.90;42.30;;;;;;5079900;28;20185;-79
2021/05/10 12:46:05;;;;;;;9.27;1.80;;;25.90;42.30;;;;;;5098044;28;20184;-78
2021/05/10 12:48:48;;;;;;;2.90;1.30;;;26.00;42.30;;;;;;5081249;28;20234;-79
2021/05/10 12:51:16;;;;;;;7.60;1.30;;;26.10;42.20;;;;;;5080820;28;20197;-78
2021/05/10 12:53:48;;;;;;;5.87;1.57;;;26.10;41.90;;;;;;5096258;28;20169;-77
2021/05/10 12:56:16;;;;;;;6.30;1.40;;;26.40;41.20;;;;;;5095786;28;20216;-77
2021/05/10 12:58:52;;;;;;;6.53;2.00;;;26.50;40.60;;;;;;5096444;28;20258;-77
2021/05/10 13:01:25;;;;;;;6.53;1.50;;;26.60;41.10;;;;;;5077723;28;20742;-77
2021/05/10 13:04:00;;;;;;;4.73;1.60;;;26.70;42.00;;;;;;5096311;28;20161;-77